Flagstaff, Arizona
Current Conditions -  °F | °C
As of 3:57 AM on Friday 28 Nov 2014 (Local Time) from KFLG Reporting Station
Clear Clear  
Wind Chill: -2°   Ceiling: Unl
Heat Index: -2°   Visibility: 10mi
Dew Point: -12°   Wind: 0mph
Humidity: 49%   Direction: NA
Pressure: 30.31"   Gusts: NA
Location:  35.2°N, 111.65°W
Report Text: KFLG 281057Z AUTO 00000KT 10SM CLR M02/M12 A3031 RMK AO2 SLP211 T10221117 TSNO
Loading
Personal Weather Stations






























Interactive Weather Map New forecast layout! Learn more

10-Day Weather Forecast

Advertisements
Track Severe Weather on mobile